EFKT

Kittila Airport

Kittila, Finland
METAR EFKT 231250Z AUTO 23014KT 200V290 CAVOK 25/12 Q1006
Observed Flight Rules
Jul-23 @ 12:50 UTC (17 minutes ago) Visual Flight Rules
Wind Visibility Clouds
230° at 14 knots 10,000+ meters
  • Clear skies
Temperatures Readings
Current 25°C / 77°F
Dewpoint 12°C / 54°F
Humidity 44%
Altimeter 29.7" Hg
Pressure 1006 hPa
Elevation 643
METAR EFKT 231250Z AUTO 23014KT 200V290 CAVOK 25/12 Q1006
Observed Flight Rules
Jul-23 @ 12:50 UTC
(17 minutes ago)
VFR
Wind Visibility
230° at 14 knots 10,000+ meters
Clouds
  • Clear skies
Temperature Dewpoint
25°C / 77°F 12°C / 54°F
Humidity Altimeter Pressure
44% 29.7" Hg 1006 hPa